CheckWX is a tool to help pilots better visualize weather data.  It is not intended as a substitute for an official pre-flight weather briefing.

06:07:41 UTC

KEKM METAR
Elkhart Municipal Airport
Elkhart, Indiana, USA
Current

4 hours ago

KEKM 280150Z 31003KT 10SM BKN060 M04/M08 A3001 RMK AO2 LAST
Observed
Feb-28 @ 01:50 UTC
Wind
  • 310° at 3 KTS
Visibility
10 SM
Flight Rules
VFR
Cloud Levels
  • Broken at 6,000' AGL
Temperature
-4°C / 25°F
Dewpoint
-8°C / 18°F
Humidity
74%
Altimeter
30.01" Hg
Pressure
1016.22 hPa
Previous

5 hours ago

KEKM 280050Z 25004KT 10SM -SN SCT010 BKN018 M04/M07 A3001 RMK AO2
Observed
Feb-28 @ 00:50 UTC
Wind
  • 250° at 4 KTS
Visibility
10 SM
Flight Rules
MVFR
Conditions
Light Snow
Cloud Levels
  • Scattered at 1,000' AGL
  • Broken at 1,800' AGL
Temperature
-4°C / 25°F
Dewpoint
-7°C / 19°F
Humidity
80%
Altimeter
30.01" Hg
Pressure
1016.22 hPa
Previous

6 hours ago

KEKM 272350Z 28007KT 10SM -SN SCT007 BKN065 M04/M08 A3000 RMK AO2
Observed
Feb-27 @ 23:50 UTC
Wind
  • 280° at 7 KTS
Visibility
10 SM
Flight Rules
VFR
Conditions
Light Snow
Cloud Levels
  • Scattered at 700' AGL
  • Broken at 6,500' AGL
Temperature
-4°C / 25°F
Dewpoint
-8°C / 18°F
Humidity
74%
Altimeter
30" Hg
Pressure
1015.92 hPa